sensor_id;sensor_type;location;lat;lon;timestamp;P1;durP1;ratioP1;P2;durP2;ratioP2
21420;SDS011;10871;50.144;8.428;2023-08-31T00:00:18;9.40;;;4.35;;
21420;SDS011;10871;50.144;8.428;2023-08-31T00:02:45;8.43;;;4.53;;
21420;SDS011;10871;50.144;8.428;2023-08-31T00:05:11;6.95;;;4.70;;
21420;SDS011;10871;50.144;8.428;2023-08-31T00:07:38;5.35;;;4.22;;
21420;SDS011;10871;50.144;8.428;2023-08-31T00:10:04;8.73;;;5.07;;
21420;SDS011;10871;50.144;8.428;2023-08-31T00:12:35;8.73;;;5.25;;
21420;SDS011;10871;50.144;8.428;2023-08-31T00:15:02;7.47;;;4.85;;
21420;SDS011;10871;50.144;8.428;2023-08-31T00:17:30;8.75;;;4.97;;
21420;SDS011;10871;50.144;8.428;2023-08-31T00:19:57;9.05;;;5.22;;
21420;SDS011;10871;50.144;8.428;2023-08-31T00:22:23;11.43;;;5.28;;
21420;SDS011;10871;50.144;8.428;2023-08-31T00:24:50;7.47;;;4.78;;
21420;SDS011;10871;50.144;8.428;2023-08-31T00:27:17;8.63;;;5.45;;
21420;SDS011;10871;50.144;8.428;2023-08-31T00:29:43;9.13;;;5.40;;
21420;SDS011;10871;50.144;8.428;2023-08-31T00:32:15;10.75;;;5.28;;
21420;SDS011;10871;50.144;8.428;2023-08-31T00:34:41;12.25;;;5.25;;
21420;SDS011;10871;50.144;8.428;2023-08-31T00:37:08;8.23;;;5.60;;
21420;SDS011;10871;50.144;8.428;2023-08-31T00:39:34;11.25;;;5.20;;
21420;SDS011;10871;50.144;8.428;2023-08-31T00:42:01;7.93;;;5.55;;
21420;SDS011;10871;50.144;8.428;2023-08-31T00:44:27;7.95;;;5.43;;
21420;SDS011;10871;50.144;8.428;2023-08-31T00:46:54;9.63;;;5.05;;
21420;SDS011;10871;50.144;8.428;2023-08-31T00:49:21;9.00;;;5.88;;
21420;SDS011;10871;50.144;8.428;2023-08-31T00:51:47;8.70;;;5.85;;
21420;SDS011;10871;50.144;8.428;2023-08-31T00:54:17;8.93;;;5.68;;
21420;SDS011;10871;50.144;8.428;2023-08-31T00:56:43;9.63;;;6.05;;
21420;SDS011;10871;50.144;8.428;2023-08-31T00:59:09;10.50;;;5.97;;
21420;SDS011;10871;50.144;8.428;2023-08-31T01:01:36;10.32;;;5.93;;
21420;SDS011;10871;50.144;8.428;2023-08-31T01:04:15;9.52;;;5.88;;
21420;SDS011;10871;50.144;8.428;2023-08-31T01:06:49;9.23;;;5.93;;
21420;SDS011;10871;50.144;8.428;2023-08-31T01:09:28;9.43;;;6.00;;
21420;SDS011;10871;50.144;8.428;2023-08-31T01:12:05;9.93;;;6.45;;
21420;SDS011;10871;50.144;8.428;2023-08-31T01:14:33;9.27;;;6.15;;
21420;SDS011;10871;50.144;8.428;2023-08-31T01:17:00;10.32;;;5.70;;
21420;SDS011;10871;50.144;8.428;2023-08-31T01:21:54;8.38;;;5.90;;
21420;SDS011;10871;50.144;8.428;2023-08-31T01:24:24;9.07;;;6.75;;
21420;SDS011;10871;50.144;8.428;2023-08-31T01:26:51;7.38;;;5.75;;
21420;SDS011;10871;50.144;8.428;2023-08-31T01:29:18;9.75;;;6.50;;
21420;SDS011;10871;50.144;8.428;2023-08-31T01:31:45;8.93;;;5.82;;
21420;SDS011;10871;50.144;8.428;2023-08-31T01:34:12;8.68;;;6.05;;
21420;SDS011;10871;50.144;8.428;2023-08-31T01:36:40;11.15;;;6.07;;
21420;SDS011;10871;50.144;8.428;2023-08-31T01:41:38;11.50;;;6.75;;
21420;SDS011;10871;50.144;8.428;2023-08-31T01:44:06;8.93;;;6.57;;
21420;SDS011;10871;50.144;8.428;2023-08-31T01:46:35;10.40;;;6.28;;
21420;SDS011;10871;50.144;8.428;2023-08-31T01:49:01;8.43;;;6.00;;
21420;SDS011;10871;50.144;8.428;2023-08-31T01:51:30;10.60;;;6.40;;
21420;SDS011;10871;50.144;8.428;2023-08-31T01:53:58;12.00;;;7.15;;
21420;SDS011;10871;50.144;8.428;2023-08-31T01:56:25;11.77;;;7.22;;
21420;SDS011;10871;50.144;8.428;2023-08-31T01:58:52;9.05;;;6.63;;
21420;SDS011;10871;50.144;8.428;2023-08-31T02:01:18;7.55;;;6.75;;
21420;SDS011;10871;50.144;8.428;2023-08-31T02:03:44;12.20;;;7.45;;
21420;SDS011;10871;50.144;8.428;2023-08-31T02:06:11;8.68;;;7.18;;
21420;SDS011;10871;50.144;8.428;2023-08-31T02:08:38;10.30;;;6.93;;
21420;SDS011;10871;50.144;8.428;2023-08-31T02:11:05;9.80;;;6.65;;
21420;SDS011;10871;50.144;8.428;2023-08-31T02:13:31;8.60;;;6.32;;
21420;SDS011;10871;50.144;8.428;2023-08-31T02:15:58;9.30;;;6.47;;
21420;SDS011;10871;50.144;8.428;2023-08-31T02:18:26;11.63;;;6.80;;
21420;SDS011;10871;50.144;8.428;2023-08-31T02:20:54;11.40;;;6.50;;
21420;SDS011;10871;50.144;8.428;2023-08-31T02:23:20;6.88;;;6.07;;
21420;SDS011;10871;50.144;8.428;2023-08-31T02:25:46;9.55;;;6.72;;
21420;SDS011;10871;50.144;8.428;2023-08-31T02:28:14;8.05;;;6.75;;
21420;SDS011;10871;50.144;8.428;2023-08-31T02:30:40;7.80;;;6.30;;
21420;SDS011;10871;50.144;8.428;2023-08-31T02:33:06;12.98;;;6.28;;
21420;SDS011;10871;50.144;8.428;2023-08-31T02:35:33;7.18;;;6.40;;
21420;SDS011;10871;50.144;8.428;2023-08-31T02:37:59;9.23;;;6.93;;
21420;SDS011;10871;50.144;8.428;2023-08-31T02:40:26;7.80;;;6.55;;
21420;SDS011;10871;50.144;8.428;2023-08-31T02:42:52;9.77;;;7.50;;
21420;SDS011;10871;50.144;8.428;2023-08-31T02:45:19;10.10;;;8.40;;
21420;SDS011;10871;50.144;8.428;2023-08-31T02:47:46;12.18;;;8.20;;
21420;SDS011;10871;50.144;8.428;2023-08-31T02:50:16;11.95;;;8.90;;
21420;SDS011;10871;50.144;8.428;2023-08-31T02:52:42;10.90;;;9.45;;
21420;SDS011;10871;50.144;8.428;2023-08-31T02:55:08;11.02;;;9.80;;
21420;SDS011;10871;50.144;8.428;2023-08-31T02:57:35;12.05;;;10.15;;
21420;SDS011;10871;50.144;8.428;2023-08-31T03:00:01;11.70;;;8.93;;
21420;SDS011;10871;50.144;8.428;2023-08-31T03:02:28;13.32;;;10.05;;
21420;SDS011;10871;50.144;8.428;2023-08-31T03:04:55;14.77;;;10.75;;
21420;SDS011;10871;50.144;8.428;2023-08-31T03:07:23;16.38;;;11.00;;
21420;SDS011;10871;50.144;8.428;2023-08-31T03:09:49;16.45;;;11.02;;
21420;SDS011;10871;50.144;8.428;2023-08-31T03:12:16;19.65;;;11.35;;
21420;SDS011;10871;50.144;8.428;2023-08-31T03:14:43;16.00;;;10.93;;
21420;SDS011;10871;50.144;8.428;2023-08-31T03:17:09;15.15;;;9.63;;
21420;SDS011;10871;50.144;8.428;2023-08-31T03:19:36;17.30;;;10.57;;
21420;SDS011;10871;50.144;8.428;2023-08-31T03:22:03;14.70;;;10.68;;
21420;SDS011;10871;50.144;8.428;2023-08-31T03:24:31;17.52;;;12.02;;
21420;SDS011;10871;50.144;8.428;2023-08-31T03:26:57;15.63;;;11.15;;
21420;SDS011;10871;50.144;8.428;2023-08-31T03:29:25;15.77;;;10.82;;
21420;SDS011;10871;50.144;8.428;2023-08-31T03:31:51;12.93;;;10.70;;
21420;SDS011;10871;50.144;8.428;2023-08-31T03:34:18;15.82;;;10.85;;
21420;SDS011;10871;50.144;8.428;2023-08-31T03:36:44;15.82;;;11.40;;
21420;SDS011;10871;50.144;8.428;2023-08-31T03:39:11;15.00;;;11.18;;
21420;SDS011;10871;50.144;8.428;2023-08-31T03:41:37;13.45;;;10.35;;
21420;SDS011;10871;50.144;8.428;2023-08-31T03:44:07;14.63;;;10.18;;
21420;SDS011;10871;50.144;8.428;2023-08-31T03:46:33;16.70;;;10.25;;
21420;SDS011;10871;50.144;8.428;2023-08-31T03:49:00;14.85;;;10.65;;
21420;SDS011;10871;50.144;8.428;2023-08-31T03:51:26;14.70;;;10.20;;
21420;SDS011;10871;50.144;8.428;2023-08-31T03:53:52;13.82;;;10.40;;
21420;SDS011;10871;50.144;8.428;2023-08-31T03:56:22;12.30;;;10.25;;
21420;SDS011;10871;50.144;8.428;2023-08-31T03:58:48;14.52;;;10.52;;
21420;SDS011;10871;50.144;8.428;2023-08-31T04:01:16;13.57;;;9.35;;
21420;SDS011;10871;50.144;8.428;2023-08-31T04:03:44;15.00;;;10.50;;
21420;SDS011;10871;50.144;8.428;2023-08-31T04:06:10;16.13;;;11.70;;
21420;SDS011;10871;50.144;8.428;2023-08-31T04:08:39;21.17;;;12.05;;
21420;SDS011;10871;50.144;8.428;2023-08-31T04:11:06;18.85;;;11.80;;
21420;SDS011;10871;50.144;8.428;2023-08-31T04:13:33;14.45;;;10.88;;
21420;SDS011;10871;50.144;8.428;2023-08-31T04:16:00;14.88;;;11.48;;
21420;SDS011;10871;50.144;8.428;2023-08-31T04:18:26;15.25;;;11.18;;
21420;SDS011;10871;50.144;8.428;2023-08-31T04:20:53;17.65;;;10.93;;
21420;SDS011;10871;50.144;8.428;2023-08-31T04:23:19;15.93;;;12.77;;
21420;SDS011;10871;50.144;8.428;2023-08-31T04:25:46;14.88;;;12.07;;
21420;SDS011;10871;50.144;8.428;2023-08-31T04:28:13;20.67;;;12.63;;
21420;SDS011;10871;50.144;8.428;2023-08-31T04:30:40;19.73;;;13.00;;
21420;SDS011;10871;50.144;8.428;2023-08-31T04:33:06;15.85;;;11.85;;
21420;SDS011;10871;50.144;8.428;2023-08-31T04:35:33;16.38;;;12.23;;
21420;SDS011;10871;50.144;8.428;2023-08-31T04:37:59;19.55;;;12.75;;
21420;SDS011;10871;50.144;8.428;2023-08-31T04:40:27;16.90;;;12.05;;
21420;SDS011;10871;50.144;8.428;2023-08-31T04:42:53;17.63;;;12.60;;
21420;SDS011;10871;50.144;8.428;2023-08-31T04:45:20;17.67;;;12.35;;
21420;SDS011;10871;50.144;8.428;2023-08-31T04:47:46;20.20;;;13.15;;
21420;SDS011;10871;50.144;8.428;2023-08-31T04:50:13;16.10;;;12.10;;
21420;SDS011;10871;50.144;8.428;2023-08-31T04:52:39;17.70;;;12.55;;
21420;SDS011;10871;50.144;8.428;2023-08-31T04:55:05;20.92;;;12.20;;
21420;SDS011;10871;50.144;8.428;2023-08-31T04:57:34;17.33;;;13.25;;
21420;SDS011;10871;50.144;8.428;2023-08-31T05:00:00;16.02;;;12.73;;
21420;SDS011;10871;50.144;8.428;2023-08-31T05:02:27;18.42;;;12.70;;
21420;SDS011;10871;50.144;8.428;2023-08-31T05:04:54;16.38;;;11.40;;
21420;SDS011;10871;50.144;8.428;2023-08-31T05:07:20;14.32;;;11.43;;
21420;SDS011;10871;50.144;8.428;2023-08-31T05:09:46;12.88;;;10.00;;
21420;SDS011;10871;50.144;8.428;2023-08-31T05:12:13;15.43;;;9.40;;
21420;SDS011;10871;50.144;8.428;2023-08-31T05:14:39;13.07;;;9.98;;
21420;SDS011;10871;50.144;8.428;2023-08-31T05:17:06;13.18;;;8.52;;
21420;SDS011;10871;50.144;8.428;2023-08-31T05:19:32;12.43;;;8.88;;
21420;SDS011;10871;50.144;8.428;2023-08-31T05:21:59;13.90;;;9.55;;
21420;SDS011;10871;50.144;8.428;2023-08-31T05:24:25;14.63;;;9.82;;
21420;SDS011;10871;50.144;8.428;2023-08-31T05:26:51;13.20;;;9.70;;
21420;SDS011;10871;50.144;8.428;2023-08-31T05:29:18;13.77;;;9.32;;
21420;SDS011;10871;50.144;8.428;2023-08-31T05:31:44;11.38;;;8.35;;
21420;SDS011;10871;50.144;8.428;2023-08-31T05:34:10;13.07;;;8.27;;
21420;SDS011;10871;50.144;8.428;2023-08-31T05:36:37;11.63;;;7.93;;
21420;SDS011;10871;50.144;8.428;2023-08-31T05:39:03;10.75;;;7.50;;
21420;SDS011;10871;50.144;8.428;2023-08-31T05:41:30;12.43;;;7.78;;
21420;SDS011;10871;50.144;8.428;2023-08-31T05:43:56;9.85;;;6.93;;
21420;SDS011;10871;50.144;8.428;2023-08-31T05:46:23;11.13;;;7.18;;
21420;SDS011;10871;50.144;8.428;2023-08-31T05:48:49;11.52;;;7.63;;
21420;SDS011;10871;50.144;8.428;2023-08-31T05:51:16;9.63;;;7.30;;
21420;SDS011;10871;50.144;8.428;2023-08-31T05:53:42;10.27;;;7.80;;
21420;SDS011;10871;50.144;8.428;2023-08-31T05:56:08;10.43;;;7.32;;
21420;SDS011;10871;50.144;8.428;2023-08-31T05:58:35;8.40;;;7.20;;
21420;SDS011;10871;50.144;8.428;2023-08-31T06:01:03;10.50;;;7.28;;
21420;SDS011;10871;50.144;8.428;2023-08-31T06:03:29;11.30;;;7.85;;
21420;SDS011;10871;50.144;8.428;2023-08-31T06:05:56;10.13;;;7.40;;
21420;SDS011;10871;50.144;8.428;2023-08-31T06:08:23;10.77;;;6.93;;
21420;SDS011;10871;50.144;8.428;2023-08-31T06:10:49;12.48;;;6.75;;
21420;SDS011;10871;50.144;8.428;2023-08-31T06:13:16;9.18;;;6.30;;
21420;SDS011;10871;50.144;8.428;2023-08-31T06:15:43;7.55;;;6.07;;
21420;SDS011;10871;50.144;8.428;2023-08-31T06:18:10;7.90;;;4.93;;
21420;SDS011;10871;50.144;8.428;2023-08-31T06:20:37;8.65;;;5.28;;
21420;SDS011;10871;50.144;8.428;2023-08-31T06:23:03;11.52;;;4.95;;
21420;SDS011;10871;50.144;8.428;2023-08-31T06:25:29;5.95;;;4.68;;
21420;SDS011;10871;50.144;8.428;2023-08-31T06:27:56;7.93;;;5.32;;
21420;SDS011;10871;50.144;8.428;2023-08-31T06:30:22;12.32;;;4.78;;
21420;SDS011;10871;50.144;8.428;2023-08-31T06:32:49;7.45;;;3.97;;
21420;SDS011;10871;50.144;8.428;2023-08-31T06:35:16;5.60;;;3.80;;
21420;SDS011;10871;50.144;8.428;2023-08-31T06:37:44;7.72;;;3.50;;
21420;SDS011;10871;50.144;8.428;2023-08-31T06:40:11;8.43;;;3.70;;
21420;SDS011;10871;50.144;8.428;2023-08-31T06:42:38;6.50;;;3.70;;
21420;SDS011;10871;50.144;8.428;2023-08-31T06:45:05;7.10;;;3.88;;
21420;SDS011;10871;50.144;8.428;2023-08-31T06:47:31;7.78;;;3.22;;
21420;SDS011;10871;50.144;8.428;2023-08-31T06:49:58;6.60;;;3.00;;
21420;SDS011;10871;50.144;8.428;2023-08-31T06:52:25;4.72;;;2.72;;
21420;SDS011;10871;50.144;8.428;2023-08-31T06:54:57;8.85;;;2.85;;
21420;SDS011;10871;50.144;8.428;2023-08-31T06:57:24;6.88;;;3.10;;
21420;SDS011;10871;50.144;8.428;2023-08-31T06:59:51;6.47;;;3.30;;
21420;SDS011;10871;50.144;8.428;2023-08-31T07:02:17;7.97;;;2.50;;
21420;SDS011;10871;50.144;8.428;2023-08-31T07:04:45;4.60;;;2.60;;
21420;SDS011;10871;50.144;8.428;2023-08-31T07:07:12;9.80;;;3.42;;
21420;SDS011;10871;50.144;8.428;2023-08-31T07:09:43;5.32;;;3.45;;
21420;SDS011;10871;50.144;8.428;2023-08-31T07:12:10;3.55;;;2.20;;
21420;SDS011;10871;50.144;8.428;2023-08-31T07:14:36;5.63;;;2.50;;
21420;SDS011;10871;50.144;8.428;2023-08-31T07:17:02;5.90;;;2.22;;
21420;SDS011;10871;50.144;8.428;2023-08-31T07:19:29;5.63;;;1.90;;
21420;SDS011;10871;50.144;8.428;2023-08-31T07:21:55;5.38;;;2.00;;
21420;SDS011;10871;50.144;8.428;2023-08-31T07:24:22;4.93;;;2.03;;
21420;SDS011;10871;50.144;8.428;2023-08-31T07:26:49;4.55;;;2.78;;
21420;SDS011;10871;50.144;8.428;2023-08-31T07:29:15;4.32;;;2.47;;
21420;SDS011;10871;50.144;8.428;2023-08-31T07:31:42;5.78;;;2.20;;
21420;SDS011;10871;50.144;8.428;2023-08-31T07:34:08;5.93;;;2.30;;
21420;SDS011;10871;50.144;8.428;2023-08-31T07:36:35;3.90;;;2.03;;
21420;SDS011;10871;50.144;8.428;2023-08-31T07:39:01;6.00;;;2.40;;
21420;SDS011;10871;50.144;8.428;2023-08-31T07:41:27;6.45;;;2.10;;
21420;SDS011;10871;50.144;8.428;2023-08-31T07:43:54;4.70;;;2.30;;
21420;SDS011;10871;50.144;8.428;2023-08-31T07:46:30;3.63;;;1.80;;
21420;SDS011;10871;50.144;8.428;2023-08-31T07:48:56;5.85;;;2.17;;
21420;SDS011;10871;50.144;8.428;2023-08-31T07:51:22;5.90;;;2.30;;
21420;SDS011;10871;50.144;8.428;2023-08-31T07:53:50;4.78;;;2.80;;
21420;SDS011;10871;50.144;8.428;2023-08-31T07:56:16;7.28;;;3.13;;
21420;SDS011;10871;50.144;8.428;2023-08-31T07:58:43;3.90;;;2.83;;
21420;SDS011;10871;50.144;8.428;2023-08-31T08:01:10;6.18;;;2.85;;
21420;SDS011;10871;50.144;8.428;2023-08-31T08:03:36;8.90;;;4.32;;
21420;SDS011;10871;50.144;8.428;2023-08-31T08:06:03;5.95;;;2.28;;
21420;SDS011;10871;50.144;8.428;2023-08-31T08:08:29;6.85;;;2.67;;
21420;SDS011;10871;50.144;8.428;2023-08-31T08:10:56;8.75;;;2.78;;
21420;SDS011;10871;50.144;8.428;2023-08-31T08:13:22;3.45;;;2.30;;
21420;SDS011;10871;50.144;8.428;2023-08-31T08:15:48;5.88;;;2.22;;
21420;SDS011;10871;50.144;8.428;2023-08-31T08:18:15;7.22;;;2.42;;
21420;SDS011;10871;50.144;8.428;2023-08-31T08:20:41;7.00;;;2.50;;
21420;SDS011;10871;50.144;8.428;2023-08-31T08:23:08;6.10;;;2.55;;
21420;SDS011;10871;50.144;8.428;2023-08-31T08:25:34;7.38;;;2.58;;
21420;SDS011;10871;50.144;8.428;2023-08-31T08:28:00;5.72;;;2.20;;
21420;SDS011;10871;50.144;8.428;2023-08-31T08:30:27;5.53;;;2.72;;
21420;SDS011;10871;50.144;8.428;2023-08-31T08:32:53;5.65;;;2.40;;
21420;SDS011;10871;50.144;8.428;2023-08-31T08:35:20;6.43;;;2.55;;
21420;SDS011;10871;50.144;8.428;2023-08-31T08:37:46;6.15;;;2.33;;
21420;SDS011;10871;50.144;8.428;2023-08-31T08:40:12;7.40;;;2.88;;
21420;SDS011;10871;50.144;8.428;2023-08-31T08:42:40;6.75;;;2.25;;
21420;SDS011;10871;50.144;8.428;2023-08-31T08:45:08;7.93;;;7.13;;
21420;SDS011;10871;50.144;8.428;2023-08-31T08:47:38;5.82;;;2.80;;
21420;SDS011;10871;50.144;8.428;2023-08-31T08:50:06;6.05;;;2.63;;
21420;SDS011;10871;50.144;8.428;2023-08-31T08:52:32;6.55;;;4.70;;
21420;SDS011;10871;50.144;8.428;2023-08-31T08:54:58;5.75;;;2.53;;
21420;SDS011;10871;50.144;8.428;2023-08-31T08:57:26;4.80;;;2.55;;
21420;SDS011;10871;50.144;8.428;2023-08-31T08:59:52;4.65;;;2.42;;
21420;SDS011;10871;50.144;8.428;2023-08-31T09:02:19;7.78;;;2.72;;
21420;SDS011;10871;50.144;8.428;2023-08-31T09:04:45;4.50;;;2.45;;
21420;SDS011;10871;50.144;8.428;2023-08-31T09:07:12;7.47;;;2.65;;
21420;SDS011;10871;50.144;8.428;2023-08-31T09:09:47;5.75;;;2.38;;
21420;SDS011;10871;50.144;8.428;2023-08-31T09:12:15;5.22;;;2.05;;
21420;SDS011;10871;50.144;8.428;2023-08-31T09:14:41;6.72;;;2.67;;
21420;SDS011;10871;50.144;8.428;2023-08-31T09:17:07;5.22;;;3.92;;
21420;SDS011;10871;50.144;8.428;2023-08-31T09:19:34;4.15;;;2.20;;
21420;SDS011;10871;50.144;8.428;2023-08-31T09:22:00;4.57;;;2.30;;
21420;SDS011;10871;50.144;8.428;2023-08-31T09:24:27;6.18;;;2.47;;
21420;SDS011;10871;50.144;8.428;2023-08-31T09:26:54;10.60;;;5.65;;
21420;SDS011;10871;50.144;8.428;2023-08-31T09:29:21;6.57;;;2.22;;
21420;SDS011;10871;50.144;8.428;2023-08-31T09:31:48;4.95;;;1.90;;
21420;SDS011;10871;50.144;8.428;2023-08-31T09:34:14;7.03;;;2.47;;
21420;SDS011;10871;50.144;8.428;2023-08-31T09:36:41;6.93;;;5.35;;
21420;SDS011;10871;50.144;8.428;2023-08-31T09:39:08;11.63;;;6.88;;
21420;SDS011;10871;50.144;8.428;2023-08-31T09:41:35;5.03;;;2.03;;
21420;SDS011;10871;50.144;8.428;2023-08-31T09:44:18;6.25;;;2.60;;
21420;SDS011;10871;50.144;8.428;2023-08-31T09:46:45;3.58;;;2.40;;
21420;SDS011;10871;50.144;8.428;2023-08-31T09:49:15;6.65;;;4.50;;
21420;SDS011;10871;50.144;8.428;2023-08-31T09:51:49;5.50;;;2.13;;
21420;SDS011;10871;50.144;8.428;2023-08-31T09:54:16;4.10;;;2.25;;
21420;SDS011;10871;50.144;8.428;2023-08-31T09:56:45;6.38;;;2.35;;
21420;SDS011;10871;50.144;8.428;2023-08-31T09:59:12;4.50;;;2.63;;
21420;SDS011;10871;50.144;8.428;2023-08-31T10:01:39;2.88;;;2.00;;
21420;SDS011;10871;50.144;8.428;2023-08-31T10:04:06;6.90;;;3.13;;
21420;SDS011;10871;50.144;8.428;2023-08-31T10:06:35;3.80;;;2.00;;
21420;SDS011;10871;50.144;8.428;2023-08-31T10:09:03;5.68;;;3.80;;
21420;SDS011;10871;50.144;8.428;2023-08-31T10:11:30;6.20;;;3.35;;
21420;SDS011;10871;50.144;8.428;2023-08-31T10:13:57;5.35;;;2.65;;
21420;SDS011;10871;50.144;8.428;2023-08-31T10:16:26;8.05;;;5.55;;
21420;SDS011;10871;50.144;8.428;2023-08-31T10:18:56;7.13;;;2.00;;
21420;SDS011;10871;50.144;8.428;2023-08-31T10:21:22;5.15;;;2.10;;
21420;SDS011;10871;50.144;8.428;2023-08-31T10:23:49;3.53;;;2.10;;
21420;SDS011;10871;50.144;8.428;2023-08-31T10:26:26;6.28;;;2.50;;
21420;SDS011;10871;50.144;8.428;2023-08-31T10:28:53;7.10;;;3.90;;
21420;SDS011;10871;50.144;8.428;2023-08-31T10:31:20;5.88;;;3.45;;
21420;SDS011;10871;50.144;8.428;2023-08-31T10:39:07;4.40;;;2.30;;
21420;SDS011;10871;50.144;8.428;2023-08-31T10:41:37;5.00;;;1.80;;
21420;SDS011;10871;50.144;8.428;2023-08-31T10:44:24;5.10;;;1.75;;
21420;SDS011;10871;50.144;8.428;2023-08-31T10:46:51;4.35;;;1.80;;
21420;SDS011;10871;50.144;8.428;2023-08-31T10:49:18;3.53;;;2.10;;
21420;SDS011;10871;50.144;8.428;2023-08-31T10:51:58;7.15;;;1.80;;
21420;SDS011;10871;50.144;8.428;2023-08-31T10:54:54;6.28;;;2.08;;
21420;SDS011;10871;50.144;8.428;2023-08-31T10:57:28;4.80;;;2.20;;
21420;SDS011;10871;50.144;8.428;2023-08-31T11:05:04;3.90;;;1.55;;
21420;SDS011;10871;50.144;8.428;2023-08-31T11:07:31;5.68;;;2.05;;
21420;SDS011;10871;50.144;8.428;2023-08-31T11:12:57;5.15;;;2.15;;
21420;SDS011;10871;50.144;8.428;2023-08-31T11:15:25;5.40;;;5.00;;
21420;SDS011;10871;50.144;8.428;2023-08-31T11:17:53;4.07;;;2.22;;
21420;SDS011;10871;50.144;8.428;2023-08-31T11:20:20;3.78;;;1.70;;
21420;SDS011;10871;50.144;8.428;2023-08-31T11:22:51;6.68;;;2.25;;
21420;SDS011;10871;50.144;8.428;2023-08-31T11:25:19;5.43;;;1.73;;
21420;SDS011;10871;50.144;8.428;2023-08-31T11:27:57;4.20;;;2.00;;
21420;SDS011;10871;50.144;8.428;2023-08-31T11:30:28;7.50;;;6.55;;
21420;SDS011;10871;50.144;8.428;2023-08-31T11:32:54;3.10;;;1.77;;
21420;SDS011;10871;50.144;8.428;2023-08-31T11:35:22;3.80;;;1.75;;
21420;SDS011;10871;50.144;8.428;2023-08-31T11:37:52;3.55;;;1.80;;
21420;SDS011;10871;50.144;8.428;2023-08-31T11:40:18;5.45;;;1.90;;
21420;SDS011;10871;50.144;8.428;2023-08-31T11:42:45;4.65;;;2.08;;
21420;SDS011;10871;50.144;8.428;2023-08-31T11:45:11;3.78;;;1.80;;
21420;SDS011;10871;50.144;8.428;2023-08-31T11:47:39;4.20;;;2.08;;
21420;SDS011;10871;50.144;8.428;2023-08-31T11:50:06;5.57;;;2.00;;
21420;SDS011;10871;50.144;8.428;2023-08-31T11:52:33;3.83;;;1.70;;
21420;SDS011;10871;50.144;8.428;2023-08-31T11:54:59;4.45;;;1.98;;
21420;SDS011;10871;50.144;8.428;2023-08-31T11:57:26;6.10;;;2.03;;
21420;SDS011;10871;50.144;8.428;2023-08-31T11:59:52;4.63;;;2.10;;
21420;SDS011;10871;50.144;8.428;2023-08-31T12:02:19;4.80;;;3.05;;
21420;SDS011;10871;50.144;8.428;2023-08-31T12:04:45;5.80;;;2.47;;
21420;SDS011;10871;50.144;8.428;2023-08-31T12:07:18;3.75;;;1.60;;
21420;SDS011;10871;50.144;8.428;2023-08-31T12:09:45;2.53;;;1.70;;
21420;SDS011;10871;50.144;8.428;2023-08-31T12:12:14;5.18;;;2.03;;
21420;SDS011;10871;50.144;8.428;2023-08-31T12:14:43;6.20;;;1.90;;
21420;SDS011;10871;50.144;8.428;2023-08-31T12:17:09;2.60;;;1.80;;
21420;SDS011;10871;50.144;8.428;2023-08-31T12:19:39;4.03;;;1.80;;
21420;SDS011;10871;50.144;8.428;2023-08-31T12:22:06;4.63;;;2.15;;
21420;SDS011;10871;50.144;8.428;2023-08-31T12:24:39;4.88;;;1.85;;
21420;SDS011;10871;50.144;8.428;2023-08-31T12:27:07;3.25;;;1.60;;
21420;SDS011;10871;50.144;8.428;2023-08-31T12:29:33;4.97;;;1.90;;
21420;SDS011;10871;50.144;8.428;2023-08-31T12:32:00;4.93;;;1.85;;
21420;SDS011;10871;50.144;8.428;2023-08-31T12:34:26;3.72;;;2.00;;
21420;SDS011;10871;50.144;8.428;2023-08-31T12:36:53;2.72;;;1.70;;
21420;SDS011;10871;50.144;8.428;2023-08-31T12:39:19;3.92;;;1.73;;
21420;SDS011;10871;50.144;8.428;2023-08-31T12:41:46;4.25;;;1.80;;
21420;SDS011;10871;50.144;8.428;2023-08-31T12:44:13;4.13;;;1.63;;
21420;SDS011;10871;50.144;8.428;2023-08-31T12:46:39;2.67;;;1.52;;
21420;SDS011;10871;50.144;8.428;2023-08-31T12:49:06;2.30;;;1.60;;
21420;SDS011;10871;50.144;8.428;2023-08-31T12:51:32;2.45;;;1.80;;
21420;SDS011;10871;50.144;8.428;2023-08-31T12:53:59;4.03;;;1.60;;
21420;SDS011;10871;50.144;8.428;2023-08-31T12:56:25;2.92;;;1.50;;
21420;SDS011;10871;50.144;8.428;2023-08-31T12:58:52;2.40;;;1.60;;
21420;SDS011;10871;50.144;8.428;2023-08-31T13:01:19;2.00;;;1.48;;
21420;SDS011;10871;50.144;8.428;2023-08-31T13:03:46;3.35;;;1.70;;
21420;SDS011;10871;50.144;8.428;2023-08-31T13:06:13;2.15;;;1.58;;
21420;SDS011;10871;50.144;8.428;2023-08-31T13:08:40;4.43;;;2.05;;
21420;SDS011;10871;50.144;8.428;2023-08-31T13:11:06;3.22;;;1.60;;
21420;SDS011;10871;50.144;8.428;2023-08-31T13:13:33;3.95;;;1.85;;
21420;SDS011;10871;50.144;8.428;2023-08-31T13:15:59;4.20;;;1.60;;
21420;SDS011;10871;50.144;8.428;2023-08-31T13:18:25;3.00;;;1.83;;
21420;SDS011;10871;50.144;8.428;2023-08-31T13:20:52;4.30;;;1.88;;
21420;SDS011;10871;50.144;8.428;2023-08-31T13:23:20;3.22;;;2.00;;
21420;SDS011;10871;50.144;8.428;2023-08-31T13:25:46;2.80;;;1.90;;
21420;SDS011;10871;50.144;8.428;2023-08-31T13:28:13;4.15;;;1.80;;
21420;SDS011;10871;50.144;8.428;2023-08-31T13:30:40;5.57;;;1.90;;
21420;SDS011;10871;50.144;8.428;2023-08-31T13:33:06;4.15;;;1.85;;
21420;SDS011;10871;50.144;8.428;2023-08-31T13:35:33;4.07;;;1.80;;
21420;SDS011;10871;50.144;8.428;2023-08-31T13:38:00;4.07;;;2.10;;
21420;SDS011;10871;50.144;8.428;2023-08-31T13:40:26;2.47;;;1.67;;
21420;SDS011;10871;50.144;8.428;2023-08-31T13:42:54;4.40;;;2.08;;
21420;SDS011;10871;50.144;8.428;2023-08-31T13:45:20;3.47;;;1.90;;
21420;SDS011;10871;50.144;8.428;2023-08-31T13:47:47;3.92;;;1.83;;
21420;SDS011;10871;50.144;8.428;2023-08-31T13:50:15;3.40;;;2.00;;
21420;SDS011;10871;50.144;8.428;2023-08-31T13:52:42;4.15;;;2.00;;
21420;SDS011;10871;50.144;8.428;2023-08-31T13:55:08;3.67;;;2.20;;
21420;SDS011;10871;50.144;8.428;2023-08-31T13:57:35;2.78;;;1.77;;
21420;SDS011;10871;50.144;8.428;2023-08-31T14:00:01;3.47;;;1.80;;
21420;SDS011;10871;50.144;8.428;2023-08-31T14:02:35;3.08;;;1.85;;
21420;SDS011;10871;50.144;8.428;2023-08-31T14:05:03;3.85;;;1.92;;
21420;SDS011;10871;50.144;8.428;2023-08-31T14:07:29;6.55;;;2.10;;
21420;SDS011;10871;50.144;8.428;2023-08-31T14:09:55;3.45;;;2.10;;
21420;SDS011;10871;50.144;8.428;2023-08-31T14:12:23;3.90;;;2.03;;
21420;SDS011;10871;50.144;8.428;2023-08-31T14:14:50;3.78;;;2.10;;
21420;SDS011;10871;50.144;8.428;2023-08-31T14:17:17;4.07;;;2.65;;
21420;SDS011;10871;50.144;8.428;2023-08-31T14:19:43;5.78;;;2.35;;
21420;SDS011;10871;50.144;8.428;2023-08-31T14:22:09;8.20;;;2.20;;
21420;SDS011;10871;50.144;8.428;2023-08-31T14:24:36;4.60;;;1.77;;
21420;SDS011;10871;50.144;8.428;2023-08-31T14:27:03;3.22;;;1.70;;
21420;SDS011;10871;50.144;8.428;2023-08-31T14:29:29;3.50;;;2.10;;
21420;SDS011;10871;50.144;8.428;2023-08-31T14:31:56;4.35;;;2.08;;
21420;SDS011;10871;50.144;8.428;2023-08-31T14:34:22;4.82;;;2.30;;
21420;SDS011;10871;50.144;8.428;2023-08-31T14:36:51;5.78;;;2.67;;
21420;SDS011;10871;50.144;8.428;2023-08-31T14:39:18;3.72;;;2.05;;
21420;SDS011;10871;50.144;8.428;2023-08-31T14:41:44;4.75;;;2.03;;
21420;SDS011;10871;50.144;8.428;2023-08-31T14:44:11;5.28;;;2.17;;
21420;SDS011;10871;50.144;8.428;2023-08-31T14:46:37;4.95;;;2.30;;
21420;SDS011;10871;50.144;8.428;2023-08-31T14:49:04;16.70;;;15.18;;
21420;SDS011;10871;50.144;8.428;2023-08-31T14:51:30;5.63;;;2.22;;
21420;SDS011;10871;50.144;8.428;2023-08-31T14:53:56;3.92;;;1.88;;
21420;SDS011;10871;50.144;8.428;2023-08-31T14:56:23;7.53;;;2.35;;
21420;SDS011;10871;50.144;8.428;2023-08-31T14:58:49;5.72;;;1.95;;